createdAt,value
2019-03-15T00:01:08.831Z,99127.38
2019-03-15T00:03:40.617Z,99127.82
2019-03-15T00:06:12.211Z,99124.34
2019-03-15T00:08:43.649Z,99125.63
2019-03-15T00:11:15.302Z,99122.61
2019-03-15T00:13:46.886Z,99122.53
2019-03-15T00:16:18.599Z,99123.47
2019-03-15T00:18:50.192Z,99117.36
2019-03-15T00:21:21.946Z,99124.28
2019-03-15T00:23:53.451Z,99120.38
2019-03-15T00:26:25.989Z,99121.27
2019-03-15T00:28:58.683Z,99131.70
2019-03-15T00:31:31.271Z,99117.83
2019-03-15T00:34:02.654Z,99111.36
2019-03-15T00:36:33.901Z,99121.29
2019-03-15T00:39:06.664Z,99113.92
2019-03-15T00:41:38.226Z,99116.53
2019-03-15T00:44:09.785Z,99118.30
2019-03-15T00:46:41.394Z,99110.48
2019-03-15T00:49:12.769Z,99114.41
2019-03-15T00:51:44.392Z,99114.00
2019-03-15T00:54:16.160Z,99113.13
2019-03-15T00:56:47.742Z,99112.28
2019-03-15T00:59:19.317Z,99117.94
2019-03-15T01:01:50.766Z,99103.16
2019-03-15T01:04:22.442Z,99102.25
2019-03-15T01:06:54.222Z,99103.16
2019-03-15T01:09:26.019Z,99096.64
2019-03-15T01:11:57.785Z,99099.23
2019-03-15T01:14:29.451Z,99107.47
2019-03-15T01:17:01.326Z,99107.07
2019-03-15T01:19:32.772Z,99108.35
2019-03-15T01:22:04.393Z,99107.92
2019-03-15T01:24:36.082Z,99103.99
2019-03-15T01:27:07.619Z,99105.73
2019-03-15T01:29:39.171Z,99105.31
2019-03-15T01:32:10.515Z,99097.48
2019-03-15T01:34:42.313Z,99107.05
2019-03-15T01:37:13.901Z,99106.63
2019-03-15T01:39:45.545Z,99110.56
2019-03-15T01:42:17.407Z,99108.82
2019-03-15T01:44:49.061Z,99101.86
2019-03-15T01:47:20.615Z,99105.75
2019-03-15T01:49:52.123Z,99106.17
2019-03-15T01:52:23.692Z,99103.95
2019-03-15T01:54:55.275Z,99107.92
2019-03-15T01:57:26.756Z,99096.60
2019-03-15T01:59:58.223Z,99091.40
2019-03-15T02:02:30.042Z,99092.25
2019-03-15T02:05:01.732Z,99093.53
2019-03-15T02:07:34.619Z,99096.58
2019-03-15T02:10:07.310Z,99101.39
2019-03-15T02:12:39.131Z,99107.41
2019-03-15T02:15:10.931Z,99106.17
2019-03-15T02:17:42.513Z,99107.52
2019-03-15T02:20:14.820Z,99103.55
2019-03-15T02:22:46.308Z,99103.61
2019-03-15T02:25:17.787Z,99104.48
2019-03-15T02:27:49.372Z,99105.80
2019-03-15T02:30:21.131Z,99105.36
2019-03-15T02:32:52.536Z,99097.14
2019-03-15T02:35:24.086Z,99095.81
2019-03-15T02:37:56.859Z,99101.84
2019-03-15T02:40:28.358Z,99106.25
2019-03-15T02:42:59.718Z,99103.20
2019-03-15T02:45:31.202Z,99106.66
2019-03-15T02:48:02.839Z,99108.86
2019-03-15T02:50:34.336Z,99115.76
2019-03-15T02:53:06.110Z,99112.30
2019-03-15T02:55:38.007Z,99109.22
2019-03-15T02:58:09.681Z,99110.98
2019-03-15T03:00:41.319Z,99106.17
2019-03-15T03:03:14.016Z,99103.61
2019-03-15T03:05:45.417Z,99103.16
2019-03-15T03:08:16.880Z,99104.48
2019-03-15T03:10:48.431Z,99106.22
2019-03-15T03:13:20.083Z,99116.20
2019-03-15T03:15:52.137Z,99111.47
2019-03-15T03:18:23.923Z,99116.67
2019-03-15T03:20:55.420Z,99120.16
2019-03-15T03:23:27.088Z,99121.47
2019-03-15T03:25:58.836Z,99127.94
2019-03-15T03:28:30.562Z,99125.34
2019-03-15T03:31:01.941Z,99125.32
2019-03-15T03:33:33.804Z,99120.97
2019-03-15T03:36:05.860Z,99125.73
2019-03-15T03:38:37.351Z,99123.19
2019-03-15T03:41:08.717Z,99127.92
2019-03-15T03:43:40.524Z,99128.35
2019-03-15T03:46:12.025Z,99132.27
2019-03-15T03:48:43.825Z,99133.55
2019-03-15T03:51:15.454Z,99138.33
2019-03-15T03:53:46.887Z,99132.27
2019-03-15T03:56:18.355Z,99138.32
2019-03-15T03:58:50.096Z,99145.71
2019-03-15T04:01:21.825Z,99143.98
2019-03-15T04:03:53.474Z,99147.03
2019-03-15T04:06:25.083Z,99142.67
2019-03-15T04:08:56.739Z,99147.83
2019-03-15T04:11:28.239Z,99146.95
2019-03-15T04:14:02.201Z,99146.97
2019-03-15T04:16:33.909Z,99143.49
2019-03-15T04:19:05.715Z,99162.16
2019-03-15T04:21:37.272Z,99157.39
2019-03-15T04:24:10.312Z,99161.31
2019-03-15T04:26:41.854Z,99169.52
2019-03-15T04:29:13.648Z,99169.09
2019-03-15T04:31:45.320Z,99165.66
2019-03-15T04:34:16.698Z,99167.38
2019-03-15T04:36:48.243Z,99167.38
2019-03-15T04:39:20.211Z,99172.57
2019-03-15T04:41:52.034Z,99175.14
2019-03-15T04:44:23.501Z,99180.33
2019-03-15T04:46:55.764Z,99186.02
2019-03-15T04:49:27.547Z,99187.72
2019-03-15T04:51:59.035Z,99182.94
2019-03-15T04:54:30.802Z,99191.18
2019-03-15T04:57:02.397Z,99192.05
2019-03-15T04:59:33.788Z,99199.02
2019-03-15T05:02:05.859Z,99198.12
2019-03-15T05:04:37.401Z,99195.09
2019-03-15T05:07:08.873Z,99202.03
2019-03-15T05:09:40.325Z,99205.08
2019-03-15T05:12:11.935Z,99203.78
2019-03-15T05:14:43.662Z,99207.24
2019-03-15T05:17:15.071Z,99209.84
2019-03-15T05:19:46.602Z,99212.04
2019-03-15T05:22:18.098Z,99212.04
2019-03-15T05:24:50.382Z,99217.27
2019-03-15T05:27:21.852Z,99210.73
2019-03-15T05:29:53.479Z,99220.71
2019-03-15T05:32:25.226Z,99222.48
2019-03-15T05:34:56.985Z,99222.46
2019-03-15T05:37:28.385Z,99223.77
2019-03-15T05:39:59.844Z,99232.44
2019-03-15T05:42:31.529Z,99234.65
2019-03-15T05:45:03.066Z,99235.08
2019-03-15T05:47:34.634Z,99233.34
2019-03-15T05:50:07.600Z,99234.66
2019-03-15T05:52:40.204Z,99243.78
2019-03-15T05:55:12.513Z,99242.89
2019-03-15T05:57:45.327Z,99244.64
2019-03-15T06:00:16.769Z,99249.44
2019-03-15T06:02:48.322Z,99249.84
2019-03-15T06:05:19.740Z,99255.50
2019-03-15T06:07:51.328Z,99255.50
2019-03-15T06:10:22.858Z,99264.19
2019-03-15T06:12:54.303Z,99257.69
2019-03-15T06:15:25.860Z,99273.28
2019-03-15T06:17:57.394Z,99262.45
2019-03-15T06:20:29.170Z,99271.58
2019-03-15T06:23:00.478Z,99265.89
2019-03-15T06:25:31.904Z,99270.21
2019-03-15T06:28:03.385Z,99267.61
2019-03-15T06:30:34.976Z,99274.14
2019-03-15T06:33:06.541Z,99279.33
2019-03-15T06:35:38.292Z,99283.20
2019-03-15T06:38:09.769Z,99285.34
2019-03-15T06:40:41.199Z,99287.95
2019-03-15T06:43:13.517Z,99282.30
2019-03-15T06:45:45.251Z,99287.55
2019-03-15T06:48:16.870Z,99287.52
2019-03-15T06:50:48.363Z,99290.11
2019-03-15T06:53:19.982Z,99285.30
2019-03-15T06:55:51.487Z,99294.39
2019-03-15T06:58:23.011Z,99293.48
2019-03-15T07:00:55.025Z,99296.52
2019-03-15T07:03:26.803Z,99288.66
2019-03-15T07:06:00.121Z,99295.21
2019-03-15T07:08:31.950Z,99302.21
2019-03-15T07:11:03.459Z,99297.84
2019-03-15T07:13:35.368Z,99293.42
2019-03-15T07:16:07.010Z,99297.30
2019-03-15T07:18:38.953Z,99295.95
2019-03-15T07:21:10.412Z,99301.17
2019-03-15T07:23:41.665Z,99303.33
2019-03-15T07:26:13.359Z,99297.66
2019-03-15T07:28:44.945Z,99305.03
2019-03-15T07:31:16.369Z,99313.22
2019-03-15T07:33:49.221Z,99316.73
2019-03-15T07:36:21.101Z,99316.77
2019-03-15T07:38:52.799Z,99319.73
2019-03-15T07:41:25.402Z,99317.11
2019-03-15T07:43:57.257Z,99320.17
2019-03-15T07:46:28.656Z,99323.16
2019-03-15T07:49:00.223Z,99318.98
2019-03-15T07:51:31.731Z,99320.56
2019-03-15T07:54:03.174Z,99323.55
2019-03-15T07:56:34.642Z,99328.03
2019-03-15T07:59:06.247Z,99323.28
2019-03-15T08:01:37.804Z,99322.36
2019-03-15T08:04:16.894Z,99325.77
2019-03-15T08:06:43.935Z,99329.82
2019-03-15T08:09:15.509Z,99327.55
2019-03-15T08:11:47.546Z,99326.52
2019-03-15T08:14:19.245Z,99325.70
2019-03-15T08:16:50.691Z,99330.90
2019-03-15T08:19:23.171Z,99326.50
2019-03-15T08:21:56.654Z,99334.30
2019-03-15T08:24:28.119Z,99335.11
2019-03-15T08:26:59.498Z,99346.44
2019-03-15T08:29:31.008Z,99343.41
2019-03-15T08:32:02.764Z,99345.95
2019-03-15T08:34:34.324Z,99345.44
2019-03-15T08:37:07.425Z,99353.25
2019-03-15T08:39:39.160Z,99351.03
2019-03-15T08:42:10.620Z,99352.70
2019-03-15T08:44:42.788Z,99353.69
2019-03-15T08:47:14.355Z,99348.72
2019-03-15T08:49:46.307Z,99355.38
2019-03-15T08:52:17.897Z,99359.95
2019-03-15T08:54:49.241Z,99364.28
2019-03-15T08:57:20.900Z,99369.56
2019-03-15T08:59:57.223Z,99368.69
2019-03-15T09:02:25.540Z,99368.63
2019-03-15T09:04:57.327Z,99372.86
2019-03-15T09:07:28.784Z,99370.22
2019-03-15T09:10:03.258Z,99370.56
2019-03-15T09:12:33.824Z,99371.95
2019-03-15T09:15:05.590Z,99379.19
2019-03-15T09:17:37.440Z,99375.41
2019-03-15T09:20:10.073Z,99376.80
2019-03-15T09:22:42.032Z,99382.05
2019-03-15T09:25:19.377Z,99389.00
2019-03-15T09:27:47.059Z,99392.77
2019-03-15T09:30:23.519Z,99387.83
2019-03-15T09:32:52.021Z,99386.88
2019-03-15T09:35:23.562Z,99388.56
2019-03-15T09:37:55.295Z,99383.44
2019-03-15T09:40:27.751Z,99401.13
2019-03-15T09:43:00.043Z,99388.78
2019-03-15T09:45:33.994Z,99391.73
2019-03-15T09:48:06.165Z,99392.24
2019-03-15T09:50:50.683Z,99396.36
2019-03-15T09:53:11.377Z,99406.38
2019-03-15T09:55:43.027Z,99405.05
2019-03-15T09:58:14.639Z,99405.95
2019-03-15T10:00:46.296Z,99407.36
2019-03-15T10:03:22.219Z,99401.30
2019-03-15T10:05:49.823Z,99405.73
2019-03-15T10:08:23.528Z,99412.69
2019-03-15T10:10:54.439Z,99419.13
2019-03-15T10:13:25.780Z,99408.26
2019-03-15T10:15:57.230Z,99402.66
2019-03-15T10:18:28.627Z,99405.78
2019-03-15T10:21:00.049Z,99414.16
2019-03-15T10:23:31.511Z,99408.81
2019-03-15T10:26:03.040Z,99401.48
2019-03-15T10:28:34.441Z,99403.61
2019-03-15T10:31:05.907Z,99401.41
2019-03-15T10:33:49.905Z,99403.03
2019-03-15T10:36:10.937Z,99413.39
2019-03-15T10:38:42.285Z,99408.73
2019-03-15T10:41:13.769Z,99401.84
2019-03-15T10:43:45.156Z,99406.03
2019-03-15T10:46:16.925Z,99407.97
2019-03-15T10:48:48.403Z,99407.81
2019-03-15T10:51:19.992Z,99399.52
2019-03-15T10:53:54.885Z,99395.06
2019-03-15T10:56:25.876Z,99394.69
2019-03-15T10:58:59.220Z,99404.73
2019-03-15T11:01:30.975Z,99398.03
2019-03-15T11:04:02.770Z,99395.84
2019-03-15T11:06:34.501Z,99402.45
2019-03-15T11:09:07.398Z,99403.67
2019-03-15T11:11:38.836Z,99403.36
2019-03-15T11:14:10.397Z,99408.22
2019-03-15T11:16:42.058Z,99410.81
2019-03-15T11:19:15.619Z,99403.85
2019-03-15T11:21:47.054Z,99412.90
2019-03-15T11:24:18.971Z,99410.26
2019-03-15T11:26:50.305Z,99411.20
2019-03-15T11:29:22.297Z,99410.56
2019-03-15T11:31:53.636Z,99411.03
2019-03-15T11:34:25.095Z,99409.81
2019-03-15T11:36:58.538Z,99413.14
2019-03-15T11:39:30.155Z,99416.81
2019-03-15T11:42:01.924Z,99416.18
2019-03-15T11:44:33.568Z,99410.84
2019-03-15T11:47:05.717Z,99413.12
2019-03-15T11:49:37.666Z,99415.83
2019-03-15T11:52:09.307Z,99420.69
2019-03-15T11:54:41.088Z,99426.62
2019-03-15T11:57:12.467Z,99426.87
2019-03-15T11:59:44.170Z,99448.50
2019-03-15T12:02:15.973Z,99437.71
2019-03-15T12:04:47.609Z,99433.73
2019-03-15T12:07:19.148Z,99424.97
2019-03-15T12:09:50.861Z,99433.17
2019-03-15T12:12:22.622Z,99447.44
2019-03-15T12:14:54.238Z,99428.17
2019-03-15T12:17:25.659Z,99439.61
2019-03-15T12:19:57.078Z,99431.58
2019-03-15T12:22:29.725Z,99438.09
2019-03-15T12:25:02.376Z,99449.88
2019-03-15T12:27:34.050Z,99464.05
2019-03-15T12:30:06.367Z,99465.36
2019-03-15T12:32:37.880Z,99459.71
2019-03-15T12:35:12.255Z,99458.81
2019-03-15T12:37:45.270Z,99450.95
2019-03-15T12:40:17.585Z,99455.92
2019-03-15T12:42:49.015Z,99453.86
2019-03-15T12:45:20.816Z,99463.34
2019-03-15T12:47:52.468Z,99462.77
2019-03-15T12:50:24.010Z,99460.61
2019-03-15T12:52:55.556Z,99457.29
2019-03-15T12:55:27.007Z,99454.29
2019-03-15T12:57:58.717Z,99443.41
2019-03-15T13:00:30.381Z,99443.47
2019-03-15T13:03:02.188Z,99445.05
2019-03-15T13:05:34.806Z,99446.02
2019-03-15T13:08:06.524Z,99442.20
2019-03-15T13:10:38.192Z,99442.94
2019-03-15T13:13:10.000Z,99443.52
2019-03-15T13:15:41.721Z,99427.81
2019-03-15T13:18:13.324Z,99420.36
2019-03-15T13:20:45.079Z,99426.07
2019-03-15T13:23:16.744Z,99443.46
2019-03-15T13:25:48.049Z,99430.42
2019-03-15T13:28:19.637Z,99452.15
2019-03-15T13:30:51.398Z,99454.83
2019-03-15T13:33:23.153Z,99452.23
2019-03-15T13:35:54.784Z,99450.36
2019-03-15T13:38:26.655Z,99461.47
2019-03-15T13:40:58.514Z,99460.69
2019-03-15T13:43:29.908Z,99466.70
2019-03-15T13:46:01.730Z,99461.94
2019-03-15T13:48:34.032Z,99458.70
2019-03-15T13:51:05.670Z,99458.02
2019-03-15T13:53:38.100Z,99460.41
2019-03-15T13:56:09.745Z,99457.85
2019-03-15T13:58:41.387Z,99460.13
2019-03-15T14:01:12.928Z,99461.92
2019-03-15T14:03:44.535Z,99458.41
2019-03-15T14:06:17.571Z,99453.20
2019-03-15T14:08:50.760Z,99441.81
2019-03-15T14:11:22.404Z,99437.89
2019-03-15T14:13:54.216Z,99433.56
2019-03-15T14:16:25.842Z,99412.96
2019-03-15T14:18:57.355Z,99414.27
2019-03-15T14:21:28.967Z,99403.67
2019-03-15T14:24:00.565Z,99396.53
2019-03-15T14:26:32.210Z,99390.38
2019-03-15T14:29:03.808Z,99379.74
2019-03-15T14:31:35.335Z,99379.13
2019-03-15T14:34:07.013Z,99371.71
2019-03-15T14:36:38.657Z,99372.14
2019-03-15T14:39:10.278Z,99361.05
2019-03-15T14:41:41.628Z,99362.17
2019-03-15T14:44:13.219Z,99359.52
2019-03-15T14:46:44.658Z,99362.87
2019-03-15T14:49:16.364Z,99345.18
2019-03-15T14:51:47.857Z,99343.61
2019-03-15T14:54:20.901Z,99333.23
2019-03-15T14:56:52.440Z,99323.33
2019-03-15T14:59:23.839Z,99320.61
2019-03-15T15:01:55.299Z,99324.61
2019-03-15T15:04:29.053Z,99331.19
2019-03-15T15:07:01.529Z,99326.45
2019-03-15T15:09:33.099Z,99331.29
2019-03-15T15:12:04.618Z,99326.09
2019-03-15T15:14:36.215Z,99325.18
2019-03-15T15:17:07.597Z,99321.22
2019-03-15T15:19:39.196Z,99317.36
2019-03-15T15:22:10.564Z,99314.33
2019-03-15T15:24:42.163Z,99316.52
2019-03-15T15:27:14.233Z,99312.96
2019-03-15T15:29:45.849Z,99308.49
2019-03-15T15:32:17.434Z,99313.33
2019-03-15T15:34:49.133Z,99306.34
2019-03-15T15:37:20.580Z,99316.38
2019-03-15T15:39:52.252Z,99310.30
2019-03-15T15:42:23.793Z,99293.72
2019-03-15T15:44:55.383Z,99286.34
2019-03-15T15:47:26.978Z,99264.52
2019-03-15T15:49:58.675Z,99265.28
2019-03-15T15:52:30.164Z,99257.42
2019-03-15T15:55:01.789Z,99271.72
2019-03-15T15:57:33.597Z,99268.95
2019-03-15T16:00:05.776Z,99259.42
2019-03-15T16:02:37.382Z,99238.22
2019-03-15T16:05:09.310Z,99228.69
2019-03-15T16:07:41.226Z,99232.28
2019-03-15T16:10:12.806Z,99232.79
2019-03-15T16:12:44.604Z,99232.42
2019-03-15T16:15:17.811Z,99225.95
2019-03-15T16:17:49.814Z,99217.72
2019-03-15T16:20:21.846Z,99216.89
2019-03-15T16:22:53.920Z,99212.53
2019-03-15T16:25:25.609Z,99213.46
2019-03-15T16:27:57.637Z,99212.16
2019-03-15T16:30:29.592Z,99203.00
2019-03-15T16:33:01.276Z,99205.62
2019-03-15T16:35:32.966Z,99199.55
2019-03-15T16:38:04.912Z,99195.22
2019-03-15T16:40:36.847Z,99190.02
2019-03-15T16:43:08.552Z,99188.24
2019-03-15T16:45:40.280Z,99189.08
2019-03-15T16:48:11.953Z,99176.94
2019-03-15T16:50:43.572Z,99177.00
2019-03-15T16:53:15.055Z,99180.06
2019-03-15T16:55:46.864Z,99168.76
2019-03-15T16:58:19.341Z,99168.82
2019-03-15T17:00:51.250Z,99167.55
2019-03-15T17:03:22.571Z,99161.48
2019-03-15T17:05:54.158Z,99157.99
2019-03-15T17:08:25.551Z,99152.83
2019-03-15T17:10:57.196Z,99152.52
2019-03-15T17:13:28.633Z,99149.20
2019-03-15T17:16:00.942Z,99137.59
2019-03-15T17:18:33.703Z,99134.23
2019-03-15T17:21:05.294Z,99126.02
2019-03-15T17:23:38.235Z,99122.56
2019-03-15T17:26:09.878Z,99123.03
2019-03-15T17:28:41.561Z,99113.88
2019-03-15T17:31:13.371Z,99102.99
2019-03-15T17:33:44.789Z,99098.51
2019-03-15T17:36:16.782Z,99088.09
2019-03-15T17:38:48.471Z,99078.53
2019-03-15T17:41:20.035Z,99067.15
2019-03-15T17:43:51.642Z,99057.86
2019-03-15T17:46:23.216Z,99050.32
2019-03-15T17:48:54.682Z,99042.91
2019-03-15T17:51:26.243Z,99033.33
2019-03-15T17:53:57.982Z,99034.70
2019-03-15T17:56:29.401Z,99019.92
2019-03-15T17:59:11.900Z,99025.66
2019-03-15T18:01:34.131Z,99017.38
2019-03-15T18:04:05.850Z,99020.94
2019-03-15T18:06:37.727Z,99002.71
2019-03-15T18:09:09.580Z,98999.27
2019-03-15T18:11:41.316Z,98991.86
2019-03-15T18:14:12.813Z,99002.38
2019-03-15T18:16:44.550Z,98990.73
2019-03-15T18:19:16.302Z,98969.56
2019-03-15T18:21:48.139Z,98957.44
2019-03-15T18:24:19.578Z,98950.17
2019-03-15T18:26:51.337Z,98944.58
2019-03-15T18:29:26.584Z,98921.98
2019-03-15T18:31:56.127Z,98907.25
2019-03-15T18:34:27.851Z,98904.67
2019-03-15T18:37:00.492Z,98904.20
2019-03-15T18:39:32.558Z,98898.25
2019-03-15T18:42:04.065Z,98887.80
2019-03-15T18:44:34.324Z,98889.58
2019-03-15T18:47:04.734Z,98880.87
2019-03-15T18:49:34.957Z,98881.74
2019-03-15T18:52:05.247Z,98864.77
2019-03-15T18:54:37.932Z,98874.81
2019-03-15T18:57:08.432Z,98849.11
2019-03-15T18:59:40.226Z,98856.10
2019-03-15T19:02:10.714Z,98841.34
2019-03-15T19:04:40.822Z,98841.34
2019-03-15T19:07:11.037Z,98837.03
2019-03-15T19:09:41.507Z,98837.36
2019-03-15T19:12:11.648Z,98820.27
2019-03-15T19:14:41.923Z,98829.92
2019-03-15T19:17:12.260Z,98827.63
2019-03-15T19:19:43.533Z,98808.73
2019-03-15T19:22:13.977Z,98799.55
2019-03-15T19:24:44.344Z,98801.61
2019-03-15T19:27:14.695Z,98766.39
2019-03-15T19:29:53.655Z,98767.09
2019-03-15T19:32:16.983Z,98767.53
2019-03-15T19:34:47.643Z,98746.32
2019-03-15T19:37:18.223Z,98755.94
2019-03-15T19:39:48.511Z,98771.17
2019-03-15T19:42:19.105Z,98750.64
2019-03-15T19:44:49.291Z,98775.33
2019-03-15T19:47:19.696Z,98757.23
2019-03-15T19:49:50.103Z,98760.80
2019-03-15T19:52:20.269Z,98760.71
2019-03-15T19:54:59.887Z,98750.30
2019-03-15T19:57:22.246Z,98731.88
2019-03-15T19:59:52.519Z,98731.41
2019-03-15T20:02:22.771Z,98731.61
2019-03-15T20:04:53.155Z,98714.28
2019-03-15T20:07:23.603Z,98718.89
2019-03-15T20:09:53.805Z,98724.59
2019-03-15T20:12:23.971Z,98711.41
2019-03-15T20:14:55.335Z,98744.55
2019-03-15T20:17:25.809Z,98729.48
2019-03-15T20:19:56.134Z,98732.14
2019-03-15T20:22:26.355Z,98713.33
2019-03-15T20:24:56.567Z,98722.95
2019-03-15T20:27:26.803Z,98727.00
2019-03-15T20:29:57.165Z,98719.16
2019-03-15T20:32:27.684Z,98721.69
2019-03-15T20:34:57.871Z,98716.55
2019-03-15T20:37:28.225Z,98716.41
2019-03-15T20:39:58.466Z,98722.00
2019-03-15T20:42:28.795Z,98697.36
2019-03-15T20:44:58.936Z,98698.67
2019-03-15T20:47:29.289Z,98685.59
2019-03-15T20:50:00.086Z,98690.84
2019-03-15T20:52:30.713Z,98692.63
2019-03-15T20:55:00.894Z,98698.58
2019-03-15T20:57:31.256Z,98683.28
2019-03-15T21:00:04.957Z,98705.94
2019-03-15T21:02:36.881Z,98699.50
2019-03-15T21:05:08.157Z,98707.81
2019-03-15T21:07:38.547Z,98719.67
2019-03-15T21:10:09.295Z,98708.48
2019-03-15T21:12:39.462Z,98713.14
2019-03-15T21:15:10.124Z,98699.16
2019-03-15T21:17:40.522Z,98712.96
2019-03-15T21:20:11.175Z,98714.06
2019-03-15T21:22:41.508Z,98716.62
2019-03-15T21:25:11.916Z,98712.23
2019-03-15T21:27:52.885Z,98717.89
2019-03-15T21:30:15.215Z,98705.69
2019-03-15T21:32:45.702Z,98711.31
2019-03-15T21:35:15.985Z,98708.30
2019-03-15T21:37:46.566Z,98705.80
2019-03-15T21:40:16.831Z,98712.96
2019-03-15T21:42:47.102Z,98710.91
2019-03-15T21:45:17.459Z,98705.83
2019-03-15T21:47:47.617Z,98699.77
2019-03-15T21:50:17.794Z,98701.30
2019-03-15T21:52:48.385Z,98701.53
2019-03-15T21:55:18.894Z,98707.84
2019-03-15T21:57:49.066Z,98710.50
2019-03-15T22:00:20.726Z,98712.84
2019-03-15T22:02:51.543Z,98703.47
2019-03-15T22:05:22.901Z,98703.99
2019-03-15T22:07:54.575Z,98698.80
2019-03-15T22:10:24.847Z,98698.30
2019-03-15T22:12:55.257Z,98697.77
2019-03-15T22:15:25.548Z,98685.55
2019-03-15T22:17:56.075Z,98700.66
2019-03-15T22:20:26.552Z,98681.06
2019-03-15T22:22:56.819Z,98676.58
2019-03-15T22:25:27.204Z,98678.28
2019-03-15T22:27:57.423Z,98670.27
2019-03-15T22:30:27.602Z,98685.02
2019-03-15T22:32:59.144Z,98677.93
2019-03-15T22:35:29.748Z,98672.05
2019-03-15T22:38:00.241Z,98673.83
2019-03-15T22:40:30.712Z,98666.13
2019-03-15T22:43:01.010Z,98667.39
2019-03-15T22:45:31.462Z,98656.12
2019-03-15T22:48:02.076Z,98663.22
2019-03-15T22:50:32.384Z,98652.89
2019-03-15T22:53:02.954Z,98648.23
2019-03-15T22:55:33.079Z,98649.06
2019-03-15T22:58:03.282Z,98635.45
2019-03-15T23:00:37.868Z,98639.70
2019-03-15T23:03:09.073Z,98641.92
2019-03-15T23:05:39.149Z,98640.58
2019-03-15T23:08:09.412Z,98626.50
2019-03-15T23:10:39.708Z,98630.78
2019-03-15T23:13:10.031Z,98629.03
2019-03-15T23:15:40.395Z,98626.67
2019-03-15T23:18:10.778Z,98614.48
2019-03-15T23:20:41.345Z,98626.72
2019-03-15T23:23:23.257Z,98616.27
2019-03-15T23:25:43.729Z,98614.14
2019-03-15T23:28:14.202Z,98619.89
2019-03-15T23:30:44.484Z,98611.33
2019-03-15T23:33:14.611Z,98607.31
2019-03-15T23:35:53.870Z,98625.02
2019-03-15T23:38:18.595Z,98616.36
2019-03-15T23:40:48.858Z,98603.69
2019-03-15T23:43:19.438Z,98635.39
2019-03-15T23:45:49.665Z,98633.34
2019-03-15T23:48:21.430Z,98620.67
2019-03-15T23:50:51.743Z,98625.64
2019-03-15T23:53:22.733Z,98642.67
2019-03-15T23:55:54.931Z,98639.92
2019-03-15T23:58:25.223Z,98632.73
